createdAt,value
2023-04-19T00:04:08.946Z,46.90
2023-04-19T00:09:30.323Z,43.70
2023-04-19T00:14:51.618Z,39.57
2023-04-19T00:20:13.561Z,35.97
2023-04-19T00:25:34.938Z,36.93
2023-04-19T00:30:56.858Z,34.93
2023-04-19T00:36:18.257Z,34.20
2023-04-19T00:41:41.759Z,33.83
2023-04-19T00:47:03.575Z,29.40
2023-04-19T00:52:26.066Z,30.57
2023-04-19T00:57:48.119Z,25.60
2023-04-19T01:03:11.191Z,24.80
2023-04-19T01:08:32.473Z,28.00
2023-04-19T01:13:55.241Z,24.33
2023-04-19T01:19:16.876Z,23.73
2023-04-19T01:24:38.444Z,23.90
2023-04-19T01:30:00.006Z,25.93
2023-04-19T01:35:21.588Z,23.03
2023-04-19T01:40:43.224Z,21.83
2023-04-19T01:46:04.467Z,19.43
2023-04-19T01:51:26.339Z,24.07
2023-04-19T01:56:48.489Z,22.03
2023-04-19T02:02:10.174Z,19.03
2023-04-19T02:07:33.295Z,20.47
2023-04-19T02:12:54.905Z,24.37
2023-04-19T02:18:17.640Z,20.80
2023-04-19T02:23:39.368Z,25.57
2023-04-19T02:29:01.135Z,20.70
2023-04-19T02:34:22.523Z,21.57
2023-04-19T02:39:46.036Z,22.07
2023-04-19T02:45:07.937Z,21.90
2023-04-19T02:50:29.512Z,21.00
2023-04-19T02:55:51.149Z,20.77
2023-04-19T03:01:14.768Z,22.60
2023-04-19T03:06:36.473Z,23.63
2023-04-19T03:11:58.012Z,26.23
2023-04-19T03:17:19.560Z,28.20
2023-04-19T03:22:44.002Z,31.47
2023-04-19T03:28:05.756Z,25.50
2023-04-19T03:33:53.134Z,37.33
2023-04-19T03:39:19.588Z,32.73
2023-04-19T03:44:45.158Z,34.17
2023-04-19T03:50:08.895Z,35.80
2023-04-19T03:55:32.321Z,39.57
2023-04-19T04:00:55.311Z,33.97
2023-04-19T04:06:16.921Z,37.30
2023-04-19T04:11:38.376Z,35.50
2023-04-19T04:17:00.616Z,34.27
2023-04-19T04:22:22.067Z,39.17
2023-04-19T04:27:46.495Z,38.63
2023-04-19T04:33:14.156Z,36.17
2023-04-19T04:38:37.620Z,38.07
2023-04-19T04:44:12.193Z,39.00
2023-04-19T04:49:34.411Z,42.27
2023-04-19T04:54:56.395Z,40.07
2023-04-19T05:00:24.412Z,40.47
2023-04-19T05:05:54.398Z,39.73
2023-04-19T05:11:16.425Z,40.93
2023-04-19T05:16:39.991Z,37.00
2023-04-19T05:22:01.875Z,32.17
2023-04-19T05:27:23.407Z,29.20
2023-04-19T05:32:45.137Z,30.50
2023-04-19T05:38:10.030Z,29.87
2023-04-19T05:43:31.670Z,28.90
2023-04-19T05:48:53.229Z,23.83
2023-04-19T05:54:36.050Z,24.43
2023-04-19T06:05:35.205Z,20.00
2023-04-19T06:11:02.089Z,23.20
2023-04-19T06:16:27.016Z,16.77
2023-04-19T06:21:48.545Z,14.70
2023-04-19T06:27:10.100Z,15.93
2023-04-19T06:32:31.597Z,14.27
2023-04-19T06:37:53.127Z,16.13
2023-04-19T06:43:14.650Z,10.93
2023-04-19T06:48:36.673Z,14.87
2023-04-19T06:53:57.981Z,9.83
2023-04-19T06:59:21.286Z,9.27
2023-04-19T07:04:42.710Z,11.50
2023-04-19T07:10:04.764Z,9.17
2023-04-19T07:15:26.253Z,8.30
2023-04-19T07:20:49.645Z,8.00
2023-04-19T07:26:11.408Z,8.70
2023-04-19T07:31:32.743Z,9.33
2023-04-19T07:36:54.308Z,10.33
2023-04-19T07:42:15.967Z,9.40
2023-04-19T07:47:37.814Z,8.73
2023-04-19T07:52:59.224Z,5.87
2023-04-19T07:58:20.814Z,7.43
2023-04-19T08:03:42.951Z,5.87
2023-04-19T08:09:04.904Z,5.43
2023-04-19T08:14:37.651Z,11.93
2023-04-19T08:20:07.048Z,9.23
2023-04-19T08:25:31.916Z,5.50
2023-04-19T08:30:54.590Z,6.93
2023-04-19T08:36:22.024Z,8.60
2023-04-19T08:41:44.837Z,8.97
2023-04-19T08:47:09.058Z,7.97
2023-04-19T08:52:35.413Z,8.13
2023-04-19T08:57:58.900Z,5.83
2023-04-19T09:03:20.549Z,7.03
2023-04-19T09:08:42.128Z,8.30
2023-04-19T09:14:11.421Z,7.90
2023-04-19T09:19:47.561Z,8.43
2023-04-19T09:30:40.255Z,7.87
2023-04-19T09:36:09.028Z,6.33
2023-04-19T09:41:39.564Z,5.90
2023-04-19T09:47:02.244Z,6.73
2023-04-19T09:52:23.860Z,6.77
2023-04-19T09:57:45.788Z,5.93
2023-04-19T10:03:09.411Z,9.07
2023-04-19T10:08:32.596Z,7.70
2023-04-19T10:14:00.516Z,8.10
2023-04-19T10:19:24.458Z,6.83
2023-04-19T10:25:13.286Z,7.23
2023-04-19T10:30:35.057Z,9.10
2023-04-19T10:35:58.344Z,7.50
2023-04-19T10:41:20.284Z,7.97
2023-04-19T10:46:41.603Z,6.67
2023-04-19T10:52:03.328Z,10.50
2023-04-19T10:57:25.547Z,9.37
2023-04-19T11:02:47.053Z,10.83
2023-04-19T11:08:09.643Z,9.47
2023-04-19T11:13:33.575Z,7.90
2023-04-19T11:18:56.244Z,8.30
2023-04-19T11:24:21.220Z,8.47
2023-04-19T11:29:42.598Z,10.13
2023-04-19T11:35:08.978Z,8.27
2023-04-19T11:40:30.338Z,14.40
2023-04-19T11:45:52.039Z,9.50
2023-04-19T11:51:16.455Z,12.30
2023-04-19T11:56:56.457Z,8.47
2023-04-19T12:02:19.451Z,7.63
2023-04-19T12:08:04.480Z,11.97
2023-04-19T12:13:29.341Z,9.73
2023-04-19T12:18:51.857Z,9.30
2023-04-19T12:24:16.232Z,9.03
2023-04-19T12:29:37.869Z,11.13
2023-04-19T12:34:59.149Z,9.17
2023-04-19T12:40:21.608Z,8.60
2023-04-19T12:45:42.886Z,8.13
2023-04-19T12:51:05.819Z,12.80
2023-04-19T12:56:27.207Z,15.43
2023-04-19T13:01:48.783Z,12.87
2023-04-19T13:07:10.400Z,10.80
2023-04-19T13:12:31.870Z,11.17
2023-04-19T13:17:53.478Z,9.30
2023-04-19T13:23:15.760Z,10.03
2023-04-19T13:28:37.000Z,10.27
2023-04-19T13:34:00.666Z,11.27
2023-04-19T13:39:22.405Z,10.00
2023-04-19T13:44:43.905Z,10.57
2023-04-19T13:50:05.903Z,10.40
2023-04-19T13:55:27.490Z,11.57
2023-04-19T14:00:49.189Z,10.57
2023-04-19T14:06:10.546Z,11.90
2023-04-19T14:11:32.344Z,11.27
2023-04-19T14:16:54.036Z,10.47
2023-04-19T14:22:17.249Z,14.63
2023-04-19T14:27:38.663Z,15.57
2023-04-19T14:33:00.363Z,10.57
2023-04-19T14:38:21.986Z,12.00
2023-04-19T14:43:43.565Z,10.43
2023-04-19T14:49:06.149Z,15.10
2023-04-19T14:54:27.768Z,10.77
2023-04-19T14:59:49.236Z,11.27
2023-04-19T15:05:11.185Z,10.40
2023-04-19T15:10:32.998Z,12.37
2023-04-19T15:15:54.676Z,10.97
2023-04-19T15:21:18.634Z,11.93
2023-04-19T15:26:40.721Z,11.83
2023-04-19T15:32:04.761Z,17.07
2023-04-19T15:37:27.493Z,12.27
2023-04-19T15:42:48.575Z,11.77
2023-04-19T15:48:11.375Z,14.80
2023-04-19T15:53:32.953Z,12.03
2023-04-19T15:58:54.279Z,14.13
2023-04-19T16:04:15.971Z,11.70
2023-04-19T16:09:43.058Z,13.00
2023-04-19T16:15:05.265Z,17.40
2023-04-19T16:20:26.930Z,12.23
2023-04-19T16:25:48.324Z,13.10
2023-04-19T16:31:09.670Z,12.80
2023-04-19T16:36:32.078Z,9.80
2023-04-19T16:41:53.685Z,11.17
2023-04-19T16:47:15.330Z,9.40
2023-04-19T16:52:36.841Z,9.93
2023-04-19T16:57:58.404Z,12.03
2023-04-19T17:03:20.417Z,10.50
2023-04-19T17:08:41.816Z,13.97
2023-04-19T17:14:03.323Z,12.57
2023-04-19T17:19:24.999Z,10.10
2023-04-19T17:24:46.473Z,18.30
2023-04-19T17:30:08.834Z,13.07
2023-04-19T17:35:30.197Z,9.90
2023-04-19T17:40:51.857Z,9.73
2023-04-19T17:46:14.218Z,8.97
2023-04-19T17:51:35.605Z,13.97
2023-04-19T17:56:59.484Z,10.73
2023-04-19T18:02:21.373Z,12.33
2023-04-19T18:07:42.770Z,10.40
2023-04-19T18:13:04.334Z,10.10
2023-04-19T18:18:25.986Z,9.20
2023-04-19T18:23:47.566Z,9.40
2023-04-19T18:29:09.626Z,10.50
2023-04-19T18:34:31.172Z,9.90
2023-04-19T18:39:52.396Z,11.37
2023-04-19T18:45:14.557Z,8.50
2023-04-19T18:50:38.429Z,8.13
2023-04-19T18:56:00.846Z,9.77
2023-04-19T19:01:22.159Z,9.40
2023-04-19T19:06:43.811Z,9.90
2023-04-19T19:12:05.540Z,10.40
2023-04-19T19:17:28.321Z,12.40
2023-04-19T19:22:51.307Z,10.90
2023-04-19T19:28:12.789Z,11.27
2023-04-19T19:33:34.399Z,12.93
2023-04-19T19:38:55.596Z,9.47
2023-04-19T19:44:17.203Z,12.00
2023-04-19T19:55:03.372Z,9.33
2023-04-19T20:00:42.859Z,11.53
2023-04-19T20:11:31.447Z,11.13
2023-04-19T20:16:53.367Z,9.10
2023-04-19T20:22:14.727Z,8.60
2023-04-19T20:27:36.349Z,10.90
2023-04-19T20:32:58.009Z,10.10
2023-04-19T20:38:19.488Z,11.83
2023-04-19T20:43:40.877Z,10.30
2023-04-19T20:49:02.401Z,9.40
2023-04-19T20:54:24.043Z,10.73
2023-04-19T20:59:47.243Z,11.27
2023-04-19T21:05:08.834Z,12.50
2023-04-19T21:10:30.775Z,12.70
2023-04-19T21:15:52.266Z,11.90
2023-04-19T21:21:13.750Z,10.20
2023-04-19T21:26:35.608Z,10.90
2023-04-19T21:31:57.199Z,12.50
2023-04-19T21:37:20.524Z,10.33
2023-04-19T21:42:42.022Z,12.87
2023-04-19T21:48:03.647Z,12.37
2023-04-19T21:53:26.440Z,15.27
2023-04-19T21:58:47.995Z,14.60
2023-04-19T22:04:12.148Z,12.30
2023-04-19T22:09:34.308Z,13.30
2023-04-19T22:14:56.064Z,12.40
2023-04-19T22:20:17.932Z,12.40
2023-04-19T22:25:39.130Z,14.57
2023-04-19T22:31:00.360Z,11.40
2023-04-19T22:36:21.931Z,12.43
2023-04-19T22:41:43.279Z,14.30
2023-04-19T22:47:05.070Z,13.30
2023-04-19T22:52:26.618Z,14.33
2023-04-19T22:57:50.775Z,14.43
2023-04-19T23:03:12.115Z,15.53
2023-04-19T23:08:33.568Z,13.50
2023-04-19T23:13:55.456Z,13.33
2023-04-19T23:19:17.686Z,15.63
2023-04-19T23:24:39.273Z,13.60
2023-04-19T23:30:01.608Z,13.50
2023-04-19T23:35:23.076Z,14.93
2023-04-19T23:40:45.603Z,14.23
2023-04-19T23:46:07.499Z,14.80
2023-04-19T23:51:28.870Z,15.00
2023-04-19T23:56:50.185Z,17.43
